Time;durP1;ratioP1;P1;durP2;ratioP2;P2;SDS_P1;SDS_P2;PMS_P1;PMS_P2;Temp;Humidity;BMP_temperature;BMP_pressure;BME280_temperature;BME280_humidity;BME280_pressure;Samples;Min_cycle;Max_cycle;Signal;HPM_P1;HPM_P2
2021/04/21 00:02:07;;;;;;;24.90;16.83;;;;;;;;;;5096169;28;20509;-53
2021/04/21 00:04:37;;;;;;;23.53;17.40;;;;;;;;;;5095989;28;20448;-56
2021/04/21 00:10:09;;;;;;;21.73;14.50;;;;;;;;;;5094095;28;20475;-54
2021/04/21 00:12:36;;;;;;;23.30;16.57;;;;;;;;;;5095879;28;20482;-56
2021/04/21 00:15:15;;;;;;;18.63;13.73;;;;;;;;;;5095813;28;20456;-51
2021/04/21 00:17:51;;;;;;;19.67;14.57;;;;;;;;;;5094258;28;20468;-56
2021/04/21 00:20:19;;;;;;;21.03;14.63;;;;;;;;;;5095895;28;20463;-50
2021/04/21 00:22:52;;;;;;;21.23;15.67;;;;;;;;;;5095973;28;20456;-57
2021/04/21 00:25:20;;;;;;;20.03;14.10;;;;;;;;;;5095986;28;20447;-51
2021/04/21 00:27:47;;;;;;;17.73;13.33;;;;;;;;;;5096557;28;20979;-56
2021/04/21 00:30:26;;;;;;;18.17;12.30;;;;;;;;;;5095823;28;20440;-56
2021/04/21 00:32:54;;;;;;;16.60;11.93;;;;;;;;;;5095973;28;20564;-62
2021/04/21 00:35:23;;;;;;;14.93;11.37;;;;;;;;;;5095195;28;20440;-60
2021/04/21 00:38:16;;;;;;;17.50;12.47;;;;;;;;;;5095473;28;20448;-56
2021/04/21 00:40:48;;;;;;;17.13;12.63;;;;;;;;;;5094491;28;20500;-54
2021/04/21 00:43:21;;;;;;;18.80;12.33;;;;;;;;;;5095426;28;20440;-52
2021/04/21 00:45:50;;;;;;;16.30;11.57;;;;;;;;;;5095279;28;20468;-57
2021/04/21 00:48:22;;;;;;;15.03;10.60;;;;;;;;;;5095195;28;20451;-56
2021/04/21 00:50:52;;;;;;;19.13;11.37;;;;;;;;;;5080902;28;20433;-51
2021/04/21 00:53:28;;;;;;;14.13;10.33;;;;;;;;;;5093894;28;20482;-50
2021/04/21 00:56:01;;;;;;;16.17;10.67;;;;;;;;;;5084935;28;20437;-55
2021/04/21 00:58:33;;;;;;;13.63;10.10;;;;;;;;;;5079728;28;20467;-53
2021/04/21 01:01:01;;;;;;;17.23;11.00;;;;;;;;;;5095983;28;20466;-60
2021/04/21 01:03:27;;;;;;;16.23;11.80;;;;;;;;;;5096402;28;20447;-52
2021/04/21 01:06:24;;;;;;;17.50;11.40;;;;;;;;;;5096340;28;20428;-56
2021/04/21 01:08:52;;;;;;;18.10;11.30;;;;;;;;;;5090190;28;20457;-54
2021/04/21 01:11:21;;;;;;;17.20;11.63;;;;;;;;;;5085492;28;20481;-57
2021/04/21 01:14:09;;;;;;;17.90;12.03;;;;;;;;;;5082642;28;20453;-50
2021/04/21 01:16:37;;;;;;;17.93;12.03;;;;;;;;;;5093566;28;20463;-55
2021/04/21 01:19:08;;;;;;;16.90;11.43;;;;;;;;;;5075162;28;20799;-54
2021/04/21 01:21:46;;;;;;;15.17;11.37;;;;;;;;;;5074860;28;20479;-53
2021/04/21 01:24:21;;;;;;;13.90;10.33;;;;;;;;;;5075621;28;20445;-57
2021/04/21 01:26:51;;;;;;;18.87;12.07;;;;;;;;;;5075573;28;20468;-52
2021/04/21 01:29:22;;;;;;;14.37;12.80;;;;;;;;;;5074931;28;20494;-53
2021/04/21 01:31:49;;;;;;;17.63;12.47;;;;;;;;;;5075011;28;20469;-51
2021/04/21 01:34:18;;;;;;;18.77;12.00;;;;;;;;;;5075230;28;20449;-45
2021/04/21 01:36:45;;;;;;;20.13;12.17;;;;;;;;;;5087503;28;20622;-56
2021/04/21 01:39:13;;;;;;;15.63;12.07;;;;;;;;;;5095488;28;20463;-53
2021/04/21 01:41:52;;;;;;;15.50;11.43;;;;;;;;;;5095263;28;20468;-57
2021/04/21 01:44:22;;;;;;;18.80;11.57;;;;;;;;;;5094724;28;20457;-56
2021/04/21 01:46:56;;;;;;;14.97;11.43;;;;;;;;;;5095353;28;20835;-53
2021/04/21 01:49:41;;;;;;;17.37;12.00;;;;;;;;;;5098783;28;20451;-56
2021/04/21 01:52:10;;;;;;;17.03;12.07;;;;;;;;;;5078691;28;20475;-56
2021/04/21 01:57:43;;;;;;;14.40;11.77;;;;;;;;;;5078396;28;20232;-53
2021/04/21 02:00:13;;;;;;;23.00;12.35;;;;;;;;;;5090793;28;20941;-56
2021/04/21 02:03:03;;;;;;;15.70;11.27;;;;;;;;;;5098342;28;20275;-55
2021/04/21 02:05:32;;;;;;;15.57;11.80;;;;;;;;;;5098833;28;20444;-52
2021/04/21 02:08:04;;;;;;;17.23;12.70;;;;;;;;;;5098458;28;20421;-51
2021/04/21 02:10:42;;;;;;;21.83;15.87;;;;;;;;;;5098134;28;20437;-55
2021/04/21 02:13:14;;;;;;;17.90;12.27;;;;;;;;;;5098347;28;20493;-50
2021/04/21 02:15:59;;;;;;;16.98;11.70;;;;;;;;;;5098129;28;20535;-51
2021/04/21 02:18:28;;;;;;;19.13;13.17;;;;;;;;;;5085378;28;20209;-51
2021/04/21 02:21:05;;;;;;;20.38;14.27;;;;;;;;;;5096410;28;20476;-56
2021/04/21 02:23:35;;;;;;;18.83;12.80;;;;;;;;;;5098393;28;20205;-54
2021/04/21 02:26:10;;;;;;;18.20;13.90;;;;;;;;;;5093246;28;20495;-54
2021/04/21 02:28:44;;;;;;;19.80;14.53;;;;;;;;;;5097380;28;20494;-58
2021/04/21 02:31:17;;;;;;;19.20;12.50;;;;;;;;;;5092539;28;20445;-56
2021/04/21 02:33:49;;;;;;;20.97;14.37;;;;;;;;;;5077652;28;20441;-55
2021/04/21 02:36:30;;;;;;;16.80;12.37;;;;;;;;;;5077728;28;20449;-56
2021/04/21 02:39:03;;;;;;;17.00;13.77;;;;;;;;;;5078010;28;20449;-53
2021/04/21 02:41:38;;;;;;;20.40;14.03;;;;;;;;;;5077599;28;20226;-57
2021/04/21 02:44:11;;;;;;;22.50;13.87;;;;;;;;;;5077595;28;20461;-51
2021/04/21 02:46:41;;;;;;;18.70;13.60;;;;;;;;;;5077553;28;20480;-54
2021/04/21 02:49:26;;;;;;;20.87;14.47;;;;;;;;;;5094897;28;20472;-57
2021/04/21 02:52:05;;;;;;;18.27;13.68;;;;;;;;;;5077429;28;20477;-56
2021/04/21 02:54:41;;;;;;;22.98;15.13;;;;;;;;;;5077706;28;20191;-60
2021/04/21 02:57:11;;;;;;;23.05;19.05;;;;;;;;;;5077223;28;20206;-54
2021/04/21 02:59:41;;;;;;;19.60;13.80;;;;;;;;;;5076190;28;20203;-57
2021/04/21 03:02:10;;;;;;;22.40;14.10;;;;;;;;;;5079813;28;20445;-56
2021/04/21 03:04:52;;;;;;;21.00;15.90;;;;;;;;;;5077506;28;20211;-57
2021/04/21 03:07:24;;;;;;;16.27;13.45;;;;;;;;;;5077244;28;20198;-52
2021/04/21 03:09:53;;;;;;;17.27;13.37;;;;;;;;;;5077330;28;20521;-59
2021/04/21 03:12:27;;;;;;;19.77;14.13;;;;;;;;;;5077757;28;20489;-54
2021/04/21 03:14:56;;;;;;;21.73;14.20;;;;;;;;;;5077812;28;20445;-53
2021/04/21 03:17:28;;;;;;;23.92;14.30;;;;;;;;;;5076894;28;20444;-54
2021/04/21 03:19:57;;;;;;;19.30;13.63;;;;;;;;;;5075639;28;20258;-57
2021/04/21 03:22:26;;;;;;;24.55;14.75;;;;;;;;;;5077406;28;20246;-53
2021/04/21 03:27:59;;;;;;;19.80;13.25;;;;;;;;;;5091539;28;20411;-55
2021/04/21 03:30:28;;;;;;;20.48;15.15;;;;;;;;;;5086456;28;20210;-51
2021/04/21 03:33:02;;;;;;;19.27;15.40;;;;;;;;;;5098146;28;20232;-56
2021/04/21 03:35:34;;;;;;;21.23;15.47;;;;;;;;;;5096722;28;20466;-53
2021/04/21 03:40:53;;;;;;;18.55;14.60;;;;;;;;;;5096363;28;20209;-53
2021/04/21 03:43:20;;;;;;;17.65;13.75;;;;;;;;;;5096086;28;20190;-55
2021/04/21 03:46:02;;;;;;;21.23;14.97;;;;;;;;;;5084513;28;20210;-54
2021/04/21 03:48:32;;;;;;;20.42;15.27;;;;;;;;;;5096270;28;20452;-52
2021/04/21 03:50:59;;;;;;;23.70;15.32;;;;;;;;;;5096488;28;20204;-56
2021/04/21 03:56:31;;;;;;;21.02;15.50;;;;;;;;;;5092722;28;20196;-57
2021/04/21 03:58:58;;;;;;;20.67;15.27;;;;;;;;;;5095643;28;20239;-53
2021/04/21 04:01:26;;;;;;;19.73;14.77;;;;;;;;;;5095984;28;20293;-60
2021/04/21 04:04:03;;;;;;;23.77;16.10;;;;;;;;;;5096198;28;20253;-57
2021/04/21 04:06:46;;;;;;;20.42;15.80;;;;;;;;;;5090399;28;20278;-55
2021/04/21 04:09:13;;;;;;;20.38;15.27;;;;;;;;;;5094927;28;20205;-56
2021/04/21 04:11:42;;;;;;;21.10;15.73;;;;;;;;;;5094780;28;20226;-58
2021/04/21 04:14:20;;;;;;;19.30;15.27;;;;;;;;;;5100417;28;20467;-55
2021/04/21 04:16:47;;;;;;;24.85;16.50;;;;;;;;;;5098633;28;20245;-54
2021/04/21 04:19:14;;;;;;;21.33;16.10;;;;;;;;;;5094780;28;20201;-52
2021/04/21 04:21:55;;;;;;;21.85;15.27;;;;;;;;;;5095262;28;20228;-58
2021/04/21 04:24:22;;;;;;;23.60;17.00;;;;;;;;;;5095083;28;20206;-54
2021/04/21 04:26:50;;;;;;;20.80;15.38;;;;;;;;;;5095139;28;20202;-53
2021/04/21 04:29:31;;;;;;;21.00;16.05;;;;;;;;;;5093653;28;20274;-59
2021/04/21 04:31:58;;;;;;;21.60;16.20;;;;;;;;;;5094572;28;20240;-61
2021/04/21 04:34:30;;;;;;;22.58;15.80;;;;;;;;;;5093763;28;20268;-54
2021/04/21 04:36:59;;;;;;;21.05;15.30;;;;;;;;;;5085379;28;20237;-59
2021/04/21 04:39:27;;;;;;;25.63;15.80;;;;;;;;;;5074851;28;20223;-58
2021/04/21 04:41:55;;;;;;;23.53;14.80;;;;;;;;;;5074772;28;20203;-54
2021/04/21 04:44:35;;;;;;;21.92;15.65;;;;;;;;;;5075551;28;20449;-58
2021/04/21 04:47:03;;;;;;;21.42;16.20;;;;;;;;;;5090673;28;20217;-60
2021/04/21 04:49:30;;;;;;;25.67;15.02;;;;;;;;;;5095336;28;20201;-56
2021/04/21 04:51:58;;;;;;;20.80;15.60;;;;;;;;;;5077447;28;20235;-58
2021/04/21 04:54:26;;;;;;;24.43;16.67;;;;;;;;;;5095058;28;20452;-56
2021/04/21 04:57:18;;;;;;;21.40;15.80;;;;;;;;;;5094855;28;20435;-60
2021/04/21 04:59:47;;;;;;;26.83;16.55;;;;;;;;;;5095287;28;20200;-57
2021/04/21 05:02:19;;;;;;;21.33;16.17;;;;;;;;;;5094604;28;20279;-53
2021/04/21 05:05:22;;;;;;;24.30;17.50;;;;;;;;;;5094842;28;20213;-58
2021/04/21 05:07:53;;;;;;;24.33;17.10;;;;;;;;;;5094202;28;20467;-56
2021/04/21 05:10:26;;;;;;;25.43;16.40;;;;;;;;;;5114688;28;20213;-55
2021/04/21 05:12:54;;;;;;;23.90;18.00;;;;;;;;;;5074386;28;20500;-57
2021/04/21 05:15:42;;;;;;;26.03;16.83;;;;;;;;;;5089985;28;20527;-54
2021/04/21 05:18:27;;;;;;;23.60;16.87;;;;;;;;;;5053741;28;20460;-54
2021/04/21 05:21:14;;;;;;;25.23;18.50;;;;;;;;;;5093751;28;20467;-52
2021/04/21 05:24:14;;;;;;;25.52;18.90;;;;;;;;;;5096345;28;20447;-53
2021/04/21 05:27:11;;;;;;;27.73;21.30;;;;;;;;;;5097166;28;20457;-55
2021/04/21 05:29:52;;;;;;;26.05;19.95;;;;;;;;;;5097791;28;20452;-55
2021/04/21 05:32:41;;;;;;;23.60;17.83;;;;;;;;;;5097492;28;20245;-55
2021/04/21 05:35:31;;;;;;;24.73;18.60;;;;;;;;;;5064161;28;20475;-58
2021/04/21 05:38:26;;;;;;;24.85;17.67;;;;;;;;;;5077833;28;20531;-49
2021/04/21 05:41:09;;;;;;;22.73;17.38;;;;;;;;;;5077148;28;20211;-54
2021/04/21 05:44:12;;;;;;;25.13;18.70;;;;;;;;;;5084375;28;20208;-55
2021/04/21 05:47:34;;;;;;;26.70;19.17;;;;;;;;;;5108250;28;20307;-56
2021/04/21 05:50:25;;;;;;;30.67;19.00;;;;;;;;;;5087377;28;20453;-55
2021/04/21 05:53:04;;;;;;;26.37;20.00;;;;;;;;;;5063931;28;20210;-54
2021/04/21 05:56:09;;;;;;;34.37;20.47;;;;;;;;;;5096997;28;20527;-52
2021/04/21 05:58:55;;;;;;;28.40;18.37;;;;;;;;;;5108002;28;20446;-56
2021/04/21 06:01:41;;;;;;;24.63;18.92;;;;;;;;;;5114885;28;20447;-59
2021/04/21 06:04:09;;;;;;;24.98;19.67;;;;;;;;;;5096541;28;20198;-56
2021/04/21 06:06:36;;;;;;;30.80;19.53;;;;;;;;;;5103912;28;20197;-53
2021/04/21 06:09:13;;;;;;;25.00;17.90;;;;;;;;;;5110783;28;20443;-55
2021/04/21 06:11:40;;;;;;;25.83;19.10;;;;;;;;;;5108176;28;20478;-54
2021/04/21 06:14:10;;;;;;;26.67;20.13;;;;;;;;;;5110009;28;20527;-59
2021/04/21 06:19:45;;;;;;;29.17;19.33;;;;;;;;;;5089713;28;20431;-55
2021/04/21 06:22:12;;;;;;;29.97;19.97;;;;;;;;;;5102930;28;20454;-50
2021/04/21 06:24:40;;;;;;;29.13;19.77;;;;;;;;;;5088841;28;20457;-55
2021/04/21 06:27:07;;;;;;;27.23;19.05;;;;;;;;;;5090193;28;20463;-53
2021/04/21 06:29:41;;;;;;;31.60;21.63;;;;;;;;;;5084484;28;20266;-61
2021/04/21 06:32:23;;;;;;;29.13;21.73;;;;;;;;;;5075752;28;20480;-52
2021/04/21 06:35:03;;;;;;;32.40;22.20;;;;;;;;;;5081757;28;20521;-56
2021/04/21 06:37:48;;;;;;;26.57;18.80;;;;;;;;;;5090930;28;20482;-58
2021/04/21 06:40:15;;;;;;;30.17;18.57;;;;;;;;;;5096001;28;20795;-55
2021/04/21 06:42:42;;;;;;;26.53;19.23;;;;;;;;;;5094099;28;20444;-53
2021/04/21 06:45:12;;;;;;;28.83;21.57;;;;;;;;;;5093528;28;20456;-55
2021/04/21 06:47:45;;;;;;;30.23;21.77;;;;;;;;;;5095636;28;20472;-50
2021/04/21 06:50:32;;;;;;;31.17;20.80;;;;;;;;;;5085267;28;20525;-58
2021/04/21 06:55:30;;;;;;;35.23;22.43;;;;;;;;;;5093751;28;20609;-54
2021/04/21 06:57:58;;;;;;;32.43;22.00;;;;;;;;;;5095254;28;20500;-56
2021/04/21 07:00:29;;;;;;;38.60;23.70;;;;;;;;;;5095674;28;20452;-53
2021/04/21 07:02:57;;;;;;;27.90;20.57;;;;;;;;;;5090356;28;20461;-54
2021/04/21 07:05:31;;;;;;;31.63;22.57;;;;;;;;;;5095108;28;20531;-60
2021/04/21 07:08:06;;;;;;;35.83;22.60;;;;;;;;;;5095430;28;20447;-56
2021/04/21 07:10:34;;;;;;;36.23;23.97;;;;;;;;;;5094421;28;20501;-56
2021/04/21 07:13:01;;;;;;;36.37;23.60;;;;;;;;;;5089412;28;20524;-56
2021/04/21 07:15:30;;;;;;;29.43;22.07;;;;;;;;;;5074853;28;20445;-54
2021/04/21 07:17:57;;;;;;;36.10;21.63;;;;;;;;;;5075163;28;20468;-55
2021/04/21 07:20:25;;;;;;;32.30;22.23;;;;;;;;;;5075364;28;20461;-56
2021/04/21 07:23:03;;;;;;;34.67;24.80;;;;;;;;;;5075277;28;20448;-59
2021/04/21 07:25:32;;;;;;;31.40;20.50;;;;;;;;;;5085412;28;20476;-49
2021/04/21 07:28:01;;;;;;;40.63;23.70;;;;;;;;;;5093933;28;20459;-55
2021/04/21 07:30:29;;;;;;;33.90;23.43;;;;;;;;;;5092980;28;20448;-55
2021/04/21 07:32:56;;;;;;;32.90;24.80;;;;;;;;;;5086730;28;20536;-57
2021/04/21 07:35:24;;;;;;;41.93;25.77;;;;;;;;;;5073858;28;20441;-60
2021/04/21 07:38:27;;;;;;;35.73;24.40;;;;;;;;;;5073824;28;20437;-54
2021/04/21 07:40:55;;;;;;;33.83;25.67;;;;;;;;;;5088991;28;20467;-52
2021/04/21 07:43:23;;;;;;;33.83;25.20;;;;;;;;;;5092703;28;20461;-52
2021/04/21 07:45:53;;;;;;;33.97;26.20;;;;;;;;;;5093269;28;20451;-57
2021/04/21 07:48:44;;;;;;;33.13;25.37;;;;;;;;;;5075180;28;20469;-57
2021/04/21 07:54:19;;;;;;;36.83;24.43;;;;;;;;;;5073465;28;20487;-57
2021/04/21 07:57:01;;;;;;;34.17;24.67;;;;;;;;;;5073160;28;20476;-53
2021/04/21 07:59:30;;;;;;;38.47;26.40;;;;;;;;;;5073587;28;20464;-58
2021/04/21 08:02:01;;;;;;;33.00;24.60;;;;;;;;;;5073113;28;20491;-58
2021/04/21 08:04:32;;;;;;;32.47;25.10;;;;;;;;;;5075504;28;20480;-55
2021/04/21 08:07:00;;;;;;;41.70;27.73;;;;;;;;;;5073741;28;20449;-58
2021/04/21 08:09:27;;;;;;;38.73;26.73;;;;;;;;;;5084767;28;20467;-57
2021/04/21 08:12:12;;;;;;;41.37;28.60;;;;;;;;;;5092793;28;20514;-55
2021/04/21 08:14:45;;;;;;;41.43;27.63;;;;;;;;;;5092843;28;20452;-56
2021/04/21 08:17:12;;;;;;;34.07;25.53;;;;;;;;;;5093385;28;20451;-57
2021/04/21 08:19:54;;;;;;;38.13;28.73;;;;;;;;;;5093333;28;20456;-60
2021/04/21 08:22:25;;;;;;;36.70;28.03;;;;;;;;;;5094230;28;20465;-54
2021/04/21 08:24:52;;;;;;;36.10;27.33;;;;;;;;;;5094493;28;20456;-55
2021/04/21 08:27:27;;;;;;;39.73;27.00;;;;;;;;;;5094302;28;20503;-59
2021/04/21 08:29:54;;;;;;;33.77;26.33;;;;;;;;;;5093689;28;20436;-56
2021/04/21 08:32:50;;;;;;;35.60;26.43;;;;;;;;;;5094152;28;20495;-61
2021/04/21 08:35:17;;;;;;;40.30;29.60;;;;;;;;;;5074050;28;20479;-56
2021/04/21 08:37:44;;;;;;;48.10;28.30;;;;;;;;;;5074090;28;20445;-54
2021/04/21 08:43:18;;;;;;;48.80;28.83;;;;;;;;;;5090228;28;20560;-56
2021/04/21 08:45:46;;;;;;;51.83;29.20;;;;;;;;;;5093597;28;20456;-52
2021/04/21 08:48:32;;;;;;;36.10;28.43;;;;;;;;;;5094308;28;20456;-60
2021/04/21 08:51:01;;;;;;;42.43;31.50;;;;;;;;;;5088216;28;20503;-60
2021/04/21 08:53:27;;;;;;;37.30;28.00;;;;;;;;;;5093818;28;20472;-58
2021/04/21 08:56:00;;;;;;;36.50;28.50;;;;;;;;;;5094346;28;20638;-56
2021/04/21 08:58:29;;;;;;;36.60;29.50;;;;;;;;;;5097424;28;20527;-55
2021/04/21 09:00:56;;;;;;;38.50;30.67;;;;;;;;;;5101338;28;20474;-57
2021/04/21 09:03:55;;;;;;;34.53;28.93;;;;;;;;;;5100186;28;20523;-56
2021/04/21 09:06:24;;;;;;;35.33;28.50;;;;;;;;;;5079168;28;20459;-56
2021/04/21 09:08:51;;;;;;;34.10;29.47;;;;;;;;;;5099723;28;20451;-58
2021/04/21 09:11:20;;;;;;;35.23;28.80;;;;;;;;;;5098549;28;20474;-59
2021/04/21 09:13:49;;;;;;;37.40;31.57;;;;;;;;;;5095546;28;20510;-58
2021/04/21 09:16:18;;;;;;;46.40;33.20;;;;;;;;;;5098316;28;20471;-60
2021/04/21 09:18:50;;;;;;;43.93;34.73;;;;;;;;;;5098735;28;20467;-60
2021/04/21 09:21:18;;;;;;;49.43;34.17;;;;;;;;;;5098953;28;20456;-58
2021/04/21 09:23:46;;;;;;;40.43;32.03;;;;;;;;;;5098898;28;20432;-59
2021/04/21 09:26:37;;;;;;;42.43;31.67;;;;;;;;;;5098062;28;20450;-60
2021/04/21 09:29:06;;;;;;;43.20;32.77;;;;;;;;;;5097995;28;20445;-53
2021/04/21 09:31:36;;;;;;;52.73;36.13;;;;;;;;;;5082189;28;20452;-58
2021/04/21 09:34:22;;;;;;;36.20;30.63;;;;;;;;;;5098708;28;20520;-59
2021/04/21 09:36:49;;;;;;;42.60;32.37;;;;;;;;;;5097065;28;20487;-53
2021/04/21 09:39:17;;;;;;;46.33;34.33;;;;;;;;;;5098230;28;20464;-56
2021/04/21 09:41:59;;;;;;;37.93;32.07;;;;;;;;;;5104549;28;20514;-60
2021/04/21 09:44:29;;;;;;;43.60;32.57;;;;;;;;;;5103722;28;20458;-52
2021/04/21 09:46:58;;;;;;;41.67;33.23;;;;;;;;;;5086028;28;20445;-57
2021/04/21 09:49:44;;;;;;;39.67;33.07;;;;;;;;;;5078214;28;20463;-53
2021/04/21 09:52:30;;;;;;;40.40;34.47;;;;;;;;;;5078132;28;20491;-56
2021/04/21 09:54:58;;;;;;;46.37;36.30;;;;;;;;;;5078604;28;20444;-57
2021/04/21 09:57:30;;;;;;;46.90;35.23;;;;;;;;;;5090715;28;20467;-59
2021/04/21 09:59:59;;;;;;;40.30;30.33;;;;;;;;;;5098941;28;20420;-54
2021/04/21 10:02:50;;;;;;;38.63;32.10;;;;;;;;;;5097959;28;20519;-59
2021/04/21 10:05:25;;;;;;;39.87;34.23;;;;;;;;;;5078420;28;20456;-62
2021/04/21 10:11:00;;;;;;;48.63;34.17;;;;;;;;;;5095742;28;20414;-57
2021/04/21 10:13:41;;;;;;;47.07;35.77;;;;;;;;;;5097478;28;20491;-60
2021/04/21 10:16:51;;;;;;;44.10;34.40;;;;;;;;;;5098837;28;20531;-56
2021/04/21 10:19:20;;;;;;;42.87;34.97;;;;;;;;;;5096122;28;20472;-60
2021/04/21 10:21:47;;;;;;;48.20;36.73;;;;;;;;;;5098136;28;20459;-56
2021/04/21 10:24:15;;;;;;;48.10;35.90;;;;;;;;;;5104322;28;20573;-56
2021/04/21 10:26:43;;;;;;;46.63;35.93;;;;;;;;;;5097825;28;20451;-56
2021/04/21 10:29:13;;;;;;;42.20;35.60;;;;;;;;;;5097939;28;20507;-58
2021/04/21 10:31:40;;;;;;;40.90;34.90;;;;;;;;;;5098196;28;20467;-57
2021/04/21 10:34:08;;;;;;;46.20;35.50;;;;;;;;;;5097407;28;20458;-60
2021/04/21 10:36:41;;;;;;;39.90;32.40;;;;;;;;;;5091306;28;20448;-59
2021/04/21 10:39:08;;;;;;;42.30;33.50;;;;;;;;;;5092962;28;20468;-59
2021/04/21 10:41:38;;;;;;;40.80;32.17;;;;;;;;;;5095391;28;20709;-57
2021/04/21 10:44:25;;;;;;;33.40;29.80;;;;;;;;;;5094239;28;20453;-59
2021/04/21 10:47:05;;;;;;;44.60;32.57;;;;;;;;;;5087793;28;20436;-57
2021/04/21 10:50:04;;;;;;;42.30;32.77;;;;;;;;;;5084362;28;20490;-54
2021/04/21 10:52:37;;;;;;;40.40;32.13;;;;;;;;;;5078493;28;20530;-54
2021/04/21 10:55:20;;;;;;;37.37;31.77;;;;;;;;;;5085218;28;20430;-55
2021/04/21 10:57:57;;;;;;;36.70;30.00;;;;;;;;;;5087624;28;20495;-58
2021/04/21 11:00:27;;;;;;;41.73;29.70;;;;;;;;;;5096555;28;20456;-59
2021/04/21 11:03:01;;;;;;;40.27;30.27;;;;;;;;;;5090949;28;20499;-59
2021/04/21 11:05:30;;;;;;;40.10;32.40;;;;;;;;;;5076985;28;20468;-59
2021/04/21 11:08:03;;;;;;;33.27;29.70;;;;;;;;;;5088384;28;20477;-61
2021/04/21 11:10:54;;;;;;;42.73;29.27;;;;;;;;;;5086722;28;20468;-56
2021/04/21 11:13:41;;;;;;;34.63;28.70;;;;;;;;;;5103056;28;20546;-51
2021/04/21 11:16:30;;;;;;;52.97;30.30;;;;;;;;;;5097127;28;20443;-56
2021/04/21 11:19:16;;;;;;;39.03;30.80;;;;;;;;;;5084900;28;20461;-54
2021/04/21 11:21:45;;;;;;;37.93;30.60;;;;;;;;;;5096178;28;20678;-57
2021/04/21 11:24:13;;;;;;;40.10;31.40;;;;;;;;;;5094040;28;20444;-58
2021/04/21 11:26:47;;;;;;;38.70;30.87;;;;;;;;;;5096463;28;20460;-57
2021/04/21 11:29:41;;;;;;;41.37;30.50;;;;;;;;;;5089991;28;20447;-60
2021/04/21 11:32:11;;;;;;;38.20;28.60;;;;;;;;;;5083135;28;20896;-58
2021/04/21 11:34:43;;;;;;;36.87;28.60;;;;;;;;;;5091238;28;20461;-57
2021/04/21 11:37:23;;;;;;;34.27;28.37;;;;;;;;;;5080864;28;20464;-60
2021/04/21 11:40:00;;;;;;;31.90;26.07;;;;;;;;;;5096769;28;20546;-56
2021/04/21 11:42:46;;;;;;;34.77;26.70;;;;;;;;;;5095561;28;20435;-59
2021/04/21 11:45:28;;;;;;;33.73;26.10;;;;;;;;;;5095203;28;20432;-56
2021/04/21 11:48:20;;;;;;;25.80;21.07;;;;;;;;;;5095786;28;20425;-57
2021/04/21 11:50:53;;;;;;;37.30;25.80;;;;;;;;;;5071036;28;20515;-58
2021/04/21 11:53:36;;;;;;;33.77;24.40;;;;;;;;;;5089470;28;20871;-54
2021/04/21 11:56:06;;;;;;;28.33;24.90;;;;;;;;;;5075160;28;20484;-55
2021/04/21 11:58:40;;;;;;;28.80;20.60;;;;;;;;;;5075544;28;20449;-56
2021/04/21 12:01:27;;;;;;;28.13;21.30;;;;;;;;;;5089884;28;20433;-56
2021/04/21 12:03:56;;;;;;;26.10;19.90;;;;;;;;;;5080704;28;20480;-55
2021/04/21 12:06:24;;;;;;;22.23;18.40;;;;;;;;;;5074812;28;20468;-61
2021/04/21 12:08:54;;;;;;;17.43;14.77;;;;;;;;;;5078277;28;20464;-57
2021/04/21 12:11:27;;;;;;;21.50;16.47;;;;;;;;;;5056580;28;20461;-54
2021/04/21 12:14:00;;;;;;;22.50;15.50;;;;;;;;;;5074955;28;20488;-55
2021/04/21 12:16:32;;;;;;;19.83;14.50;;;;;;;;;;5074842;28;20434;-57
2021/04/21 12:19:00;;;;;;;19.60;14.83;;;;;;;;;;5074014;28;20453;-54
2021/04/21 12:21:28;;;;;;;25.27;14.77;;;;;;;;;;5075293;28;20449;-53
2021/04/21 12:24:01;;;;;;;16.40;12.30;;;;;;;;;;5084111;28;20509;-53
2021/04/21 12:26:29;;;;;;;17.83;12.80;;;;;;;;;;5094021;28;20480;-59
2021/04/21 12:29:01;;;;;;;21.13;13.90;;;;;;;;;;5094190;28;20450;-56
2021/04/21 12:31:29;;;;;;;14.60;12.73;;;;;;;;;;5091667;28;20500;-54
2021/04/21 12:37:03;;;;;;;17.70;14.13;;;;;;;;;;5066442;28;20527;-55
2021/04/21 12:39:31;;;;;;;21.70;15.63;;;;;;;;;;5093680;28;20466;-58
2021/04/21 12:42:03;;;;;;;19.97;16.30;;;;;;;;;;5093958;28;20440;-56
2021/04/21 12:44:31;;;;;;;22.83;17.00;;;;;;;;;;5093836;28;20511;-56
2021/04/21 12:47:07;;;;;;;27.73;21.77;;;;;;;;;;5093799;28;20511;-59
2021/04/21 12:50:01;;;;;;;27.33;19.80;;;;;;;;;;5093644;28;20498;-58
2021/04/21 12:52:30;;;;;;;22.17;19.60;;;;;;;;;;5093457;28;20468;-61
2021/04/21 12:55:01;;;;;;;25.73;18.90;;;;;;;;;;5094256;28;20446;-58
2021/04/21 12:57:28;;;;;;;27.37;18.10;;;;;;;;;;5096259;28;20462;-54
2021/04/21 12:59:56;;;;;;;22.57;16.43;;;;;;;;;;5094180;28;20434;-59
2021/04/21 13:05:57;;;;;;;26.30;17.73;;;;;;;;;;5087416;28;20431;-60
2021/04/21 13:08:25;;;;;;;25.33;15.87;;;;;;;;;;5095219;28;20455;-57
2021/04/21 13:11:08;;;;;;;20.00;13.83;;;;;;;;;;5112199;28;20447;-61
2021/04/21 13:13:41;;;;;;;17.10;13.40;;;;;;;;;;5075322;28;20503;-58
2021/04/21 13:16:28;;;;;;;16.97;13.77;;;;;;;;;;5102422;28;20455;-58
2021/04/21 13:18:55;;;;;;;23.10;14.40;;;;;;;;;;5096891;28;20440;-56
2021/04/21 13:21:23;;;;;;;20.37;13.57;;;;;;;;;;5098290;28;20460;-58
2021/04/21 13:24:01;;;;;;;23.63;14.70;;;;;;;;;;5095295;28;20463;-54
2021/04/21 13:26:32;;;;;;;20.83;13.40;;;;;;;;;;5095223;28;20456;-57
2021/04/21 13:29:01;;;;;;;18.80;13.30;;;;;;;;;;5095084;28;20448;-61
2021/04/21 13:31:40;;;;;;;19.50;13.67;;;;;;;;;;5095335;28;20459;-54
2021/04/21 13:45:25;;;;;;;18.70;12.90;;;;;;;;;;1492583;26;20234;-54
2021/04/21 13:47:53;;;;;;;17.70;11.93;;;;;;;;;;5047571;28;20455;-56
2021/04/21 13:53:24;;;;;;;19.47;11.93;;;;;;;;;;5045890;28;20480;-55
2021/04/21 13:55:53;;;;;;;15.10;12.97;;;;;;;;;;5044495;28;20506;-58
2021/04/21 13:58:50;;;;;;;20.67;13.97;;;;;;;;;;5037322;28;20458;-57
2021/04/21 14:01:20;;;;;;;14.90;11.40;;;;;;;;;;5058748;28;20473;-60
2021/04/21 14:03:47;;;;;;;20.37;12.40;;;;;;;;;;5056078;28;20461;-57
2021/04/21 14:06:21;;;;;;;20.57;12.63;;;;;;;;;;5042970;28;20454;-57
2021/04/21 14:08:48;;;;;;;17.73;12.80;;;;;;;;;;5068695;28;20527;-55
2021/04/21 14:11:19;;;;;;;18.67;12.00;;;;;;;;;;5090667;28;20476;-59
2021/04/21 14:14:03;;;;;;;13.90;11.33;;;;;;;;;;5078213;28;20477;-57
2021/04/21 14:16:52;;;;;;;24.97;14.27;;;;;;;;;;5080001;28;20579;-56
2021/04/21 14:19:22;;;;;;;18.53;13.27;;;;;;;;;;5096211;28;20460;-57
2021/04/21 14:21:49;;;;;;;16.03;12.00;;;;;;;;;;5078940;28;20524;-56
2021/04/21 14:24:16;;;;;;;14.43;12.03;;;;;;;;;;5096171;28;20726;-55
2021/04/21 14:26:50;;;;;;;16.37;12.70;;;;;;;;;;5086688;28;20449;-56
2021/04/21 14:29:16;;;;;;;22.33;14.70;;;;;;;;;;5084393;28;20444;-55
2021/04/21 14:31:43;;;;;;;18.00;13.87;;;;;;;;;;5091695;28;20471;-58
2021/04/21 14:34:10;;;;;;;17.70;12.90;;;;;;;;;;5097696;28;20492;-51
2021/04/21 14:36:42;;;;;;;21.30;14.63;;;;;;;;;;5096036;28;20475;-57
2021/04/21 14:42:14;;;;;;;19.17;14.53;;;;;;;;;;5097067;28;20453;-54
2021/04/21 14:44:41;;;;;;;20.50;15.43;;;;;;;;;;5094346;28;20475;-52
2021/04/21 14:47:45;;;;;;;20.00;15.40;;;;;;;;;;5093242;28;20490;-58
2021/04/21 14:50:20;;;;;;;18.27;14.10;;;;;;;;;;5084803;28;20448;-59
2021/04/21 14:52:58;;;;;;;19.27;16.27;;;;;;;;;;5097381;28;20493;-58
2021/04/21 14:55:24;;;;;;;21.23;15.87;;;;;;;;;;5086017;28;20465;-61
2021/04/21 14:57:51;;;;;;;20.03;16.40;;;;;;;;;;5080198;28;20464;-58
2021/04/21 15:03:24;;;;;;;24.10;16.60;;;;;;;;;;5090703;28;20501;-56
2021/04/21 15:05:54;;;;;;;17.30;14.70;;;;;;;;;;5097537;28;20452;-59
2021/04/21 15:08:24;;;;;;;21.17;15.73;;;;;;;;;;5098095;28;20467;-57
2021/04/21 15:11:04;;;;;;;16.63;14.13;;;;;;;;;;5083871;28;20465;-56
2021/04/21 15:14:00;;;;;;;24.10;15.93;;;;;;;;;;5084099;28;20463;-60
2021/04/21 15:16:29;;;;;;;19.23;13.40;;;;;;;;;;5077533;28;20449;-56
2021/04/21 15:19:05;;;;;;;16.83;13.67;;;;;;;;;;5081675;28;20479;-59
2021/04/21 15:21:46;;;;;;;20.33;15.63;;;;;;;;;;5077475;28;20456;-60
2021/04/21 15:24:14;;;;;;;24.77;14.90;;;;;;;;;;5092212;28;20455;-57
2021/04/21 15:26:41;;;;;;;21.90;16.50;;;;;;;;;;5096926;28;20456;-55
2021/04/21 15:29:14;;;;;;;22.30;14.47;;;;;;;;;;5097082;28;20506;-57
2021/04/21 15:31:46;;;;;;;16.87;14.20;;;;;;;;;;5092699;28;20496;-55
2021/04/21 15:34:15;;;;;;;21.80;15.63;;;;;;;;;;5096310;28;20502;-55
2021/04/21 15:36:44;;;;;;;19.50;15.97;;;;;;;;;;5096330;28;20460;-58
2021/04/21 15:39:13;;;;;;;20.13;14.67;;;;;;;;;;5094578;28;20472;-58
2021/04/21 15:41:43;;;;;;;21.43;15.53;;;;;;;;;;5096631;28;20487;-53
2021/04/21 15:44:13;;;;;;;20.60;15.80;;;;;;;;;;5096816;28;20444;-54
2021/04/21 15:46:46;;;;;;;19.37;16.17;;;;;;;;;;5096357;28;20523;-51
2021/04/21 15:49:20;;;;;;;24.37;18.30;;;;;;;;;;5096137;28;20470;-60
2021/04/21 15:51:48;;;;;;;19.67;15.60;;;;;;;;;;5094820;28;20428;-56
2021/04/21 15:54:25;;;;;;;24.67;18.53;;;;;;;;;;5080942;28;20496;-49